Time;durP1;ratioP1;P1;durP2;ratioP2;P2;SDS_P1;SDS_P2;PMS_P1;PMS_P2;Temp;Humidity;BMP_temperature;BMP_pressure;BME280_temperature;BME280_humidity;BME280_pressure;Samples;Min_cycle;Max_cycle;Signal;HPM_P1;HPM_P2
2021/07/26 00:01:44;;;;;;;;;10.75;8.00;;;;;20.50;75.47;100720.66;5073397;27;45449;-69
2021/07/26 00:04:09;;;;;;;;;8.00;7.50;;;;;20.51;75.27;100717.03;5073833;27;45467;-68
2021/07/26 00:06:35;;;;;;;;;8.25;8.25;;;;;20.51;75.13;100711.69;5075845;28;56351;-69
2021/07/26 00:09:00;;;;;;;;;7.50;7.50;;;;;20.51;75.22;100714.34;5076736;27;45467;-69
2021/07/26 00:11:26;;;;;;;;;11.50;9.25;;;;;20.51;74.97;100711.69;5074919;27;45457;-69
2021/07/26 00:13:51;;;;;;;;;7.50;7.00;;;;;20.52;75.48;100715.22;5075266;27;45708;-68
2021/07/26 00:16:16;;;;;;;;;8.75;6.75;;;;;20.51;75.60;100709.00;5074742;27;45376;-69
2021/07/26 00:18:42;;;;;;;;;8.00;7.25;;;;;20.53;75.23;100714.25;5073724;27;47292;-69
2021/07/26 00:21:07;;;;;;;;;6.75;6.75;;;;;20.51;75.83;100702.81;5076824;27;49346;-69
2021/07/26 00:23:32;;;;;;;;;8.25;8.25;;;;;20.54;75.99;100702.59;5073800;27;45475;-69
2021/07/26 00:25:58;;;;;;;;;12.50;8.25;;;;;20.54;75.41;100700.75;5074751;27;45362;-69
2021/07/26 00:28:23;;;;;;;;;7.50;7.25;;;;;20.54;75.55;100699.91;5074431;27;45429;-69
2021/07/26 00:30:48;;;;;;;;;10.75;8.00;;;;;20.52;75.68;100701.88;5073845;27;54420;-69
2021/07/26 00:34:06;;;;;;;;;8.00;7.25;;;;;20.55;75.41;100702.44;5076159;27;51688;-68
2021/07/26 00:36:35;;;;;;;;;10.50;8.75;;;;;20.54;75.23;100700.75;5010667;28;45466;-68
2021/07/26 00:39:01;;;;;;;;;6.25;6.00;;;;;20.54;75.57;100705.25;5011874;28;46594;-68
2021/07/26 00:41:26;;;;;;;;;10.75;9.25;;;;;20.54;75.30;100710.59;5012650;28;45907;-68
2021/07/26 00:43:51;;;;;;;;;11.25;7.75;;;;;20.52;75.27;100716.06;4993688;28;45726;-69
2021/07/26 00:46:17;;;;;;;;;9.75;9.00;;;;;20.50;75.29;100706.47;4996643;28;45369;-68
2021/07/26 00:48:44;;;;;;;;;8.00;7.50;;;;;20.51;75.06;100711.69;5012264;28;46292;-69
2021/07/26 00:51:10;;;;;;;;;7.00;6.75;;;;;20.52;75.28;100705.38;5012724;28;45516;-69
2021/07/26 00:53:37;;;;;;;;;11.25;7.75;;;;;20.50;75.35;100698.47;5011071;28;45632;-68
2021/07/26 00:56:02;;;;;;;;;7.25;7.25;;;;;20.53;75.05;100707.06;5010473;28;45623;-69
2021/07/26 00:58:27;;;;;;;;;6.25;6.25;;;;;20.55;75.03;100705.09;5009324;28;45760;-69
2021/07/26 01:00:53;;;;;;;;;12.00;6.50;;;;;20.56;75.37;100705.94;5011265;28;59984;-69
2021/07/26 01:03:18;;;;;;;;;6.50;6.50;;;;;20.54;75.29;100706.09;5014078;28;45321;-69
2021/07/26 01:05:43;;;;;;;;;5.25;5.25;;;;;20.56;75.12;100704.13;5013145;28;50669;-69
2021/07/26 01:08:09;;;;;;;;;7.75;6.75;;;;;20.56;74.98;100714.81;5010190;28;45491;-69
2021/07/26 01:10:34;;;;;;;;;6.75;6.75;;;;;20.57;75.18;100703.19;5010299;28;45961;-69
2021/07/26 01:12:59;;;;;;;;;11.50;10.25;;;;;20.57;74.94;100700.50;5045080;27;45466;-69
2021/07/26 01:15:24;;;;;;;;;9.25;9.00;;;;;20.57;74.94;100705.84;5075392;27;50014;-68
2021/07/26 01:18:21;;;;;;;;;11.75;8.00;;;;;20.62;74.75;100710.78;5074290;28;51933;-69
2021/07/26 01:21:14;;;;;;;;;9.50;9.50;;;;;20.63;75.04;100714.31;5073890;27;45783;-69
2021/07/26 01:23:45;;;;;;;;;10.50;8.50;;;;;20.64;74.77;100710.66;5074381;27;45303;-69
2021/07/26 01:26:13;;;;;;;;;11.00;9.00;;;;;20.65;74.96;100715.00;5073971;27;45302;-68
2021/07/26 01:28:45;;;;;;;;;9.50;9.50;;;;;20.66;74.39;100714.03;5072300;28;45758;-69
2021/07/26 01:31:10;;;;;;;;;12.00;11.25;;;;;20.64;74.49;100719.50;5074502;28;45621;-69
2021/07/26 01:33:37;;;;;;;;;11.00;11.00;;;;;20.63;74.29;100722.31;5073800;27;45412;-68
2021/07/26 01:36:03;;;;;;;;;9.50;8.50;;;;;20.61;74.56;100710.91;5073783;27;45471;-69
2021/07/26 01:38:29;;;;;;;;;14.50;13.00;;;;;20.60;73.99;100723.41;5073705;27;46422;-69
2021/07/26 01:40:57;;;;;;;;;14.75;14.00;;;;;20.57;73.98;100719.19;5072094;28;45467;-69
2021/07/26 01:43:32;;;;;;;;;12.50;11.25;;;;;20.55;74.22;100718.47;5072404;27;45339;-69
2021/07/26 01:46:12;;;;;;;;;9.75;9.75;;;;;20.54;74.07;100721.28;5056996;28;45420;-69
2021/07/26 01:48:46;;;;;;;;;17.50;13.75;;;;;20.56;73.97;100721.97;5073588;27;45615;-69
2021/07/26 01:51:16;;;;;;;;;14.25;13.00;;;;;20.57;73.82;100721.03;5074660;27;45459;-68
2021/07/26 01:53:44;;;;;;;;;15.00;12.00;;;;;20.54;73.86;100721.28;5073704;27;45602;-68
2021/07/26 01:56:09;;;;;;;;;15.00;13.50;;;;;20.51;73.70;100721.50;5073661;27;45492;-68
2021/07/26 01:58:35;;;;;;;;;16.50;13.75;;;;;20.54;73.60;100726.59;5070669;27;45578;-69
2021/07/26 02:01:00;;;;;;;;;16.50;14.75;;;;;20.54;73.83;100730.13;5073782;27;45351;-69
2021/07/26 02:03:26;;;;;;;;;17.25;12.50;;;;;20.53;73.88;100732.94;5072895;27;55630;-69
2021/07/26 02:05:51;;;;;;;;;16.25;12.75;;;;;20.50;73.70;100739.34;5074304;27;45365;-69
2021/07/26 02:08:16;;;;;;;;;15.00;14.25;;;;;20.47;73.46;100726.28;5073121;27;45876;-69
2021/07/26 02:10:42;;;;;;;;;12.50;12.00;;;;;20.45;73.47;100730.88;5073107;27;45505;-68
2021/07/26 02:13:07;;;;;;;;;13.75;11.25;;;;;20.42;73.96;100736.47;5073370;28;45389;-69
2021/07/26 02:15:32;;;;;;;;;11.25;10.25;;;;;20.46;73.79;100748.59;5074034;28;45251;-69
2021/07/26 02:17:58;;;;;;;;;12.00;10.00;;;;;20.42;73.01;100747.16;5090138;27;46558;-69
2021/07/26 02:20:23;;;;;;;;;9.25;9.00;;;;;20.39;72.94;100752.75;5071548;28;45317;-69
2021/07/26 02:22:48;;;;;;;;;9.00;8.75;;;;;20.33;72.80;100746.09;5073599;27;45453;-68
2021/07/26 02:25:15;;;;;;;;;12.75;11.25;;;;;20.21;73.23;100739.13;5073229;28;45555;-69
2021/07/26 02:27:40;;;;;;;;;11.00;10.50;;;;;20.26;72.84;100755.59;5072428;28;46221;-68
2021/07/26 02:30:06;;;;;;;;;9.25;8.25;;;;;20.24;72.57;100760.19;5074673;28;52424;-69
2021/07/26 02:32:31;;;;;;;;;6.75;6.75;;;;;20.23;72.57;100760.34;5073453;27;45529;-68
2021/07/26 02:34:57;;;;;;;;;6.75;6.75;;;;;20.17;72.67;100760.84;5072572;28;53591;-69
2021/07/26 02:37:22;;;;;;;;;7.75;7.50;;;;;20.14;72.53;100761.09;5071347;27;52255;-68
2021/07/26 02:39:47;;;;;;;;;9.50;9.00;;;;;20.04;72.31;100756.50;5072852;28;45420;-69
2021/07/26 02:42:12;;;;;;;;;9.75;7.75;;;;;20.04;72.47;100764.50;5090661;27;46247;-69
2021/07/26 02:44:38;;;;;;;;;9.00;8.00;;;;;19.96;73.29;100764.31;5072569;28;52069;-68
2021/07/26 02:47:04;;;;;;;;;6.75;6.75;;;;;19.89;73.09;100759.59;5072655;28;45528;-69
2021/07/26 02:49:29;;;;;;;;;11.50;10.00;;;;;19.81;73.30;100760.22;5073113;27;45430;-68
2021/07/26 02:51:55;;;;;;;;;10.00;7.75;;;;;19.74;73.55;100769.69;5072722;28;47934;-70
2021/07/26 02:54:20;;;;;;;;;10.50;8.25;;;;;19.68;73.53;100759.50;5074522;27;51178;-68
2021/07/26 02:56:45;;;;;;;;;9.50;9.00;;;;;19.59;73.15;100771.78;5070945;28;48102;-68
2021/07/26 02:59:10;;;;;;;;;13.50;9.75;;;;;19.51;73.43;100759.00;5075139;27;45501;-68
2021/07/26 03:01:38;;;;;;;;;13.25;11.50;;;;;19.49;73.72;100774.28;5075772;28;49070;-68
2021/07/26 03:04:04;;;;;;;;;10.00;9.25;;;;;19.42;74.22;100766.88;5076343;27;45265;-69
2021/07/26 03:06:30;;;;;;;;;13.00;11.00;;;;;19.38;74.26;100778.78;5077669;27;45520;-68
2021/07/26 03:08:55;;;;;;;;;14.00;14.00;;;;;19.34;74.49;100772.00;5076463;28;45534;-68
2021/07/26 03:11:20;;;;;;;;;12.75;11.00;;;;;19.30;74.01;100776.72;5076352;27;45489;-68
2021/07/26 03:13:46;;;;;;;;;13.25;12.25;;;;;19.28;74.41;100768.00;5076182;27;45457;-68
2021/07/26 03:16:13;;;;;;;;;15.00;12.25;;;;;19.23;74.39;100776.34;5074575;27;45529;-68
2021/07/26 03:18:39;;;;;;;;;13.00;10.75;;;;;19.17;74.69;100776.84;5076466;27;45428;-68
2021/07/26 03:21:05;;;;;;;;;14.00;11.00;;;;;19.08;75.38;100766.06;5078122;27;45247;-68
2021/07/26 03:23:31;;;;;;;;;12.25;11.25;;;;;19.11;74.78;100773.81;5075383;28;45318;-69
2021/07/26 03:25:56;;;;;;;;;13.00;11.75;;;;;18.99;75.22;100757.78;5071349;28;47598;-69
2021/07/26 03:28:22;;;;;;;;;11.00;8.25;;;;;18.96;74.97;100758.06;5075096;27;45354;-68
2021/07/26 03:30:48;;;;;;;;;15.00;11.00;;;;;18.93;75.45;100762.75;5076048;28;45535;-68
2021/07/26 03:33:13;;;;;;;;;12.00;11.75;;;;;19.02;75.56;100772.69;5078191;27;45262;-68
2021/07/26 03:35:39;;;;;;;;;13.00;10.00;;;;;18.94;75.52;100767.97;5075561;27;45904;-68
2021/07/26 03:38:07;;;;;;;;;13.50;10.50;;;;;18.97;75.35;100775.72;5073524;27;45485;-68
2021/07/26 03:40:34;;;;;;;;;14.00;11.75;;;;;18.96;75.87;100774.03;5075800;27;45367;-68
2021/07/26 03:43:01;;;;;;;;;14.50;12.50;;;;;18.98;75.96;100776.56;5076160;27;45442;-68
2021/07/26 03:45:27;;;;;;;;;16.50;13.50;;;;;19.00;75.70;100782.59;5076302;28;45559;-68
2021/07/26 03:47:56;;;;;;;;;16.50;15.00;;;;;18.99;75.97;100776.44;5076544;27;45441;-69
2021/07/26 03:50:22;;;;;;;;;14.75;13.00;;;;;18.99;75.69;100776.44;5075462;27;45356;-68
2021/07/26 03:52:49;;;;;;;;;12.50;12.50;;;;;18.98;76.32;100774.75;5074852;28;45409;-68
2021/07/26 03:55:20;;;;;;;;;12.25;12.25;;;;;18.95;75.98;100776.78;5074671;27;46349;-68
2021/07/26 03:57:48;;;;;;;;;15.25;12.75;;;;;19.01;76.21;100789.66;5074817;27;45803;-68
2021/07/26 04:00:15;;;;;;;;;15.00;13.00;;;;;19.02;75.94;100791.34;5077510;27;45403;-68
2021/07/26 04:02:42;;;;;;;;;12.25;10.50;;;;;18.99;76.33;100788.91;5075304;27;45447;-68
2021/07/26 04:05:14;;;;;;;;;14.00;13.50;;;;;19.02;76.36;100794.00;5075063;27;46192;-68
2021/07/26 04:07:40;;;;;;;;;17.50;15.00;;;;;19.00;76.23;100790.59;5073673;27;45283;-69
2021/07/26 04:10:08;;;;;;;;;13.50;13.50;;;;;18.99;76.31;100789.75;5075722;28;45368;-69
2021/07/26 04:12:35;;;;;;;;;19.00;15.75;;;;;18.92;76.34;100777.03;5076110;27;45297;-68
2021/07/26 04:15:07;;;;;;;;;11.75;11.50;;;;;18.95;76.20;100784.78;5076293;28;45532;-68
2021/07/26 04:17:32;;;;;;;;;17.50;13.50;;;;;18.97;76.25;100791.69;5073858;27;45421;-68
2021/07/26 04:19:58;;;;;;;;;19.25;16.75;;;;;18.94;76.24;100791.94;5070622;28;45938;-68
2021/07/26 04:22:23;;;;;;;;;17.75;14.50;;;;;18.95;76.55;100796.31;5074418;28;47447;-69
2021/07/26 04:24:48;;;;;;;;;15.75;15.00;;;;;18.95;76.97;100798.97;5074901;27;45508;-68
2021/07/26 04:27:14;;;;;;;;;19.00;16.25;;;;;18.94;76.96;100802.56;5076184;27;45319;-68
2021/07/26 04:29:39;;;;;;;;;18.25;16.50;;;;;18.97;76.92;100797.03;5073667;27;54288;-68
2021/07/26 04:32:06;;;;;;;;;18.50;16.75;;;;;19.02;76.85;100807.34;5073974;27;55551;-69
2021/07/26 04:34:31;;;;;;;;;18.25;16.50;;;;;19.08;76.47;100808.66;5073190;27;45384;-68
2021/07/26 04:36:57;;;;;;;;;17.00;14.00;;;;;19.12;76.91;100807.47;5074858;27;45521;-68
2021/07/26 04:39:22;;;;;;;;;16.00;15.75;;;;;19.08;76.53;100793.53;5076506;28;46457;-68
2021/07/26 04:41:47;;;;;;;;;17.00;15.00;;;;;19.15;76.70;100802.72;5074745;28;45276;-68
2021/07/26 04:44:13;;;;;;;;;20.00;17.00;;;;;19.16;76.37;100803.56;5074497;28;45487;-69
2021/07/26 04:46:38;;;;;;;;;14.25;13.50;;;;;19.09;76.56;100789.91;5069896;28;52354;-68
2021/07/26 04:49:03;;;;;;;;;18.25;15.75;;;;;19.19;76.17;100812.19;5074243;27;52505;-69
2021/07/26 04:51:28;;;;;;;;;16.25;14.50;;;;;19.14;76.31;100803.72;5075408;27;45478;-68
2021/07/26 04:53:54;;;;;;;;;13.75;13.75;;;;;19.14;76.46;100795.72;5075516;27;46544;-69
2021/07/26 04:56:19;;;;;;;;;16.75;15.25;;;;;19.19;76.02;100812.19;5071960;28;55579;-69
2021/07/26 04:58:44;;;;;;;;;18.50;15.75;;;;;19.21;76.28;100815.59;5073599;28;45688;-68
2021/07/26 05:01:10;;;;;;;;;19.50;16.25;;;;;19.24;76.43;100815.34;5074493;28;45382;-68
2021/07/26 05:03:35;;;;;;;;;16.50;15.75;;;;;19.24;75.92;100809.16;5074776;27;45585;-68
2021/07/26 05:06:00;;;;;;;;;17.75;13.75;;;;;19.28;76.20;100815.97;5075634;27;45494;-69
2021/07/26 05:08:26;;;;;;;;;20.25;17.75;;;;;19.36;75.94;100823.34;5074353;28;45349;-68
2021/07/26 05:10:51;;;;;;;;;14.50;14.25;;;;;19.26;76.42;100808.09;5074146;27;45474;-68
2021/07/26 05:13:16;;;;;;;;;23.00;14.50;;;;;19.38;76.71;100819.59;5073175;27;46415;-68
2021/07/26 05:15:42;;;;;;;;;16.00;15.50;;;;;19.40;77.23;100824.81;5074055;28;45503;-68
2021/07/26 05:18:07;;;;;;;;;10.25;9.75;;;;;19.42;76.94;100831.72;5075922;27;45383;-68
2021/07/26 05:20:33;;;;;;;;;15.75;13.75;;;;;19.44;77.19;100829.78;5073725;28;45303;-68
2021/07/26 05:22:59;;;;;;;;;17.25;15.25;;;;;19.45;76.33;100820.81;5073934;28;46505;-69
2021/07/26 05:25:24;;;;;;;;;18.00;13.25;;;;;19.47;77.03;100831.34;5069788;28;45319;-69
2021/07/26 05:27:49;;;;;;;;;18.25;15.00;;;;;19.48;77.03;100825.91;5073382;27;46889;-68
2021/07/26 05:30:15;;;;;;;;;18.00;12.75;;;;;19.47;76.64;100828.69;5075786;27;46388;-68
2021/07/26 05:32:40;;;;;;;;;15.50;13.50;;;;;19.51;76.08;100833.66;5073671;27;46292;-68
2021/07/26 05:35:06;;;;;;;;;18.00;14.75;;;;;19.49;76.60;100834.75;5070023;27;49996;-69
2021/07/26 05:37:31;;;;;;;;;15.50;12.50;;;;;19.49;77.07;100832.94;5073805;27;45429;-68
2021/07/26 05:39:57;;;;;;;;;13.00;9.25;;;;;19.52;76.43;100837.16;5074325;28;45299;-68
2021/07/26 05:42:22;;;;;;;;;13.50;13.25;;;;;19.47;76.63;100831.34;5075657;27;46511;-68
2021/07/26 05:44:47;;;;;;;;;17.25;13.00;;;;;19.46;76.95;100841.16;5073477;27;45432;-68
2021/07/26 05:47:13;;;;;;;;;12.00;12.00;;;;;19.47;76.62;100834.88;5073543;27;45462;-68
2021/07/26 05:49:38;;;;;;;;;12.75;10.25;;;;;19.48;76.51;100833.06;5073060;28;45450;-68
2021/07/26 05:52:04;;;;;;;;;13.75;12.25;;;;;19.48;76.59;100828.56;5072163;27;45473;-69
2021/07/26 05:54:29;;;;;;;;;12.00;10.00;;;;;19.46;76.96;100840.31;5074814;27;45496;-68
2021/07/26 05:56:54;;;;;;;;;14.50;12.50;;;;;19.48;76.80;100833.06;5073740;27;49711;-68
2021/07/26 05:59:21;;;;;;;;;13.00;12.00;;;;;19.52;76.84;100829.16;5073373;28;45624;-69
2021/07/26 06:01:49;;;;;;;;;14.00;12.00;;;;;19.55;77.00;100829.78;5073332;27;45518;-68
2021/07/26 06:04:16;;;;;;;;;13.25;12.25;;;;;19.63;76.98;100839.88;5072995;27;45303;-68
2021/07/26 06:06:45;;;;;;;;;12.25;10.50;;;;;19.68;76.38;100839.50;5073651;27;45383;-68
2021/07/26 06:09:12;;;;;;;;;12.50;11.00;;;;;19.76;76.82;100840.59;5075972;27;45504;-69
2021/07/26 06:11:38;;;;;;;;;11.25;11.00;;;;;19.83;76.18;100834.75;5073069;27;45551;-68
2021/07/26 06:14:04;;;;;;;;;11.75;8.00;;;;;19.93;75.85;100839.22;5071612;27;45420;-68
2021/07/26 06:16:30;;;;;;;;;11.25;10.25;;;;;20.03;75.23;100839.34;5073311;27;45521;-69
2021/07/26 06:18:55;;;;;;;;;13.50;12.75;;;;;20.09;75.54;100844.16;5072905;27;45594;-69
2021/07/26 06:21:21;;;;;;;;;11.75;8.75;;;;;20.12;75.39;100835.94;5074938;28;52276;-68
2021/07/26 06:23:46;;;;;;;;;9.50;8.25;;;;;20.16;75.10;100839.22;5073028;28;45342;-68
2021/07/26 06:26:12;;;;;;;;;11.00;8.00;;;;;20.15;74.99;100829.47;5072411;28;45334;-68
2021/07/26 06:28:37;;;;;;;;;10.50;8.75;;;;;20.15;74.86;100834.81;5068912;28;45254;-68
2021/07/26 06:31:03;;;;;;;;;10.00;8.25;;;;;20.21;75.16;100845.03;5074692;27;46165;-68
2021/07/26 06:33:30;;;;;;;;;12.25;11.75;;;;;20.28;74.34;100844.38;5077534;27;45417;-69
2021/07/26 06:35:56;;;;;;;;;11.75;9.00;;;;;20.28;75.05;100843.53;5077725;27;45399;-68
2021/07/26 06:38:21;;;;;;;;;11.50;9.25;;;;;20.29;75.37;100840.72;5076466;27;45504;-68
2021/07/26 06:40:47;;;;;;;;;10.25;9.50;;;;;20.34;74.03;100845.69;5076582;27;45464;-68
2021/07/26 06:43:12;;;;;;;;;13.00;11.00;;;;;20.29;74.53;100840.72;5076870;28;45323;-68
2021/07/26 06:45:37;;;;;;;;;7.75;7.50;;;;;20.43;74.34;100844.09;5076442;27;53988;-68
2021/07/26 06:48:03;;;;;;;;;10.00;7.50;;;;;20.65;74.08;100844.03;5077788;28;45452;-69
2021/07/26 06:50:28;;;;;;;;;7.75;7.75;;;;;20.91;73.61;100849.00;5076159;28;46270;-69
2021/07/26 06:52:54;;;;;;;;;9.00;6.75;;;;;20.98;73.40;100843.00;5074717;28;46655;-69
2021/07/26 06:55:19;;;;;;;;;8.50;6.75;;;;;21.21;72.84;100853.56;5076187;28;45514;-69
2021/07/26 06:57:44;;;;;;;;;8.25;8.25;;;;;21.32;72.47;100856.19;5076577;27;45282;-68
2021/07/26 07:00:10;;;;;;;;;8.25;7.75;;;;;21.40;71.81;100850.19;5078026;28;59403;-68
2021/07/26 07:02:36;;;;;;;;;9.00;7.50;;;;;21.42;72.11;100838.38;5075661;28;45308;-69
2021/07/26 07:05:02;;;;;;;;;8.50;6.50;;;;;21.55;71.81;100856.88;5076227;27;45579;-70
2021/07/26 07:07:27;;;;;;;;;9.00;9.00;;;;;21.59;71.26;100850.28;5089013;27;45520;-71
2021/07/26 07:09:53;;;;;;;;;14.25;8.25;;;;;21.70;71.49;100854.69;5074596;27;47875;-71
2021/07/26 07:12:18;;;;;;;;;8.50;8.00;;;;;21.77;70.90;100854.03;5077553;28;45818;-70
2021/07/26 07:14:44;;;;;;;;;16.00;8.50;;;;;21.81;70.99;100863.44;5075604;27;45461;-70
2021/07/26 07:17:09;;;;;;;;;11.50;10.50;;;;;21.85;71.06;100856.00;5076195;27;45344;-71
2021/07/26 07:19:38;;;;;;;;;12.50;10.50;;;;;21.92;71.71;100859.81;5075437;28;45492;-70
2021/07/26 07:22:03;;;;;;;;;13.25;8.50;;;;;22.09;70.58;100853.84;5075229;28;45603;-70
2021/07/26 07:24:28;;;;;;;;;11.75;9.75;;;;;22.21;70.14;100861.78;5076750;27;45443;-70
2021/07/26 07:26:54;;;;;;;;;11.50;8.00;;;;;22.24;69.78;100861.50;5076336;27;45291;-71
2021/07/26 07:29:19;;;;;;;;;10.25;10.25;;;;;22.17;69.79;100871.91;5073514;27;60997;-70
2021/07/26 07:31:44;;;;;;;;;13.25;12.50;;;;;22.02;71.08;100871.41;5074222;27;45516;-71
2021/07/26 07:34:12;;;;;;;;;14.75;11.25;;;;;21.88;72.09;100869.97;5072759;27;46647;-70
2021/07/26 07:36:39;;;;;;;;;14.25;11.00;;;;;21.80;72.24;100874.31;5076545;27;45322;-71
2021/07/26 07:39:04;;;;;;;;;18.50;13.25;;;;;21.72;72.61;100876.81;5075141;28;46388;-71
2021/07/26 07:41:30;;;;;;;;;14.75;13.50;;;;;21.59;73.26;100883.22;5074862;28;45452;-71
2021/07/26 07:43:55;;;;;;;;;12.25;11.00;;;;;21.48;73.87;100883.31;5075773;27;45307;-70
2021/07/26 07:46:21;;;;;;;;;16.50;12.25;;;;;21.35;74.05;100878.19;5075057;28;46036;-71
2021/07/26 07:48:47;;;;;;;;;14.25;10.00;;;;;21.25;74.72;100884.41;5075448;27;45467;-71
2021/07/26 07:51:12;;;;;;;;;12.25;11.25;;;;;21.23;74.82;100886.34;5075640;28;45408;-71
2021/07/26 07:53:38;;;;;;;;;11.75;11.00;;;;;21.19;75.19;100877.75;5072859;28;45466;-71
2021/07/26 07:56:04;;;;;;;;;16.25;9.25;;;;;21.24;74.66;100877.34;5074757;27;45375;-71
2021/07/26 07:58:29;;;;;;;;;13.75;13.50;;;;;21.27;75.04;100883.28;5075662;27;45523;-71
2021/07/26 08:00:56;;;;;;;;;13.00;12.75;;;;;21.47;74.22;100886.97;5075028;27;45417;-71
2021/07/26 08:03:22;;;;;;;;;13.50;10.75;;;;;21.79;74.26;100889.50;5073359;28;45456;-71
2021/07/26 08:05:48;;;;;;;;;15.75;13.00;;;;;22.61;73.35;100886.66;5074860;27;45733;-71
2021/07/26 08:08:14;;;;;;;;;14.00;11.75;;;;;23.17;72.38;100885.91;5075064;27;45444;-71
2021/07/26 08:10:39;;;;;;;;;16.00;12.00;;;;;23.48;70.85;100885.72;5091828;27;45353;-72
2021/07/26 08:13:04;;;;;;;;;22.00;13.50;;;;;23.81;70.38;100889.75;5075507;28;45334;-71
2021/07/26 08:15:30;;;;;;;;;13.00;11.75;;;;;24.13;70.06;100894.66;5074835;28;45493;-71
2021/07/26 08:17:56;;;;;;;;;13.25;10.50;;;;;25.88;69.97;100887.75;5087917;27;47213;-71
2021/07/26 08:20:21;;;;;;;;;16.50;11.25;;;;;26.79;65.03;100879.78;5074344;27;45381;-71
2021/07/26 08:22:47;;;;;;;;;16.00;10.75;;;;;27.25;63.19;100888.19;5074763;27;45469;-73
2021/07/26 08:25:13;;;;;;;;;13.50;11.00;;;;;27.14;61.55;100896.66;5074041;27;45478;-73
2021/07/26 08:27:51;;;;;;;;;18.25;11.50;;;;;26.76;62.38;100901.69;5075474;27;45519;-72
2021/07/26 08:30:21;;;;;;;;;14.00;13.00;;;;;26.27;62.64;100896.19;5091940;27;46788;-71
2021/07/26 08:32:46;;;;;;;;;12.25;11.00;;;;;25.85;62.28;100905.09;5074913;28;45600;-71
2021/07/26 08:35:12;;;;;;;;;15.00;13.25;;;;;25.55;63.36;100894.81;5074859;28;45471;-72
2021/07/26 08:37:37;;;;;;;;;18.50;14.75;;;;;25.39;63.83;100898.25;5074492;28;46573;-69
2021/07/26 08:40:03;;;;;;;;;16.00;13.00;;;;;25.45;64.18;100902.97;5074224;28;56231;-69
2021/07/26 08:42:30;;;;;;;;;12.50;12.50;;;;;25.56;64.07;100908.09;5075589;27;45298;-70
2021/07/26 08:44:55;;;;;;;;;16.75;13.50;;;;;25.66;62.72;100908.00;5075581;27;45505;-71
2021/07/26 08:47:22;;;;;;;;;11.50;10.50;;;;;25.60;62.95;100900.56;5073407;28;46541;-71
2021/07/26 08:49:48;;;;;;;;;12.00;10.00;;;;;25.46;62.71;100912.75;5072714;27;45487;-72
2021/07/26 08:52:18;;;;;;;;;15.00;12.25;;;;;25.38;62.58;100907.31;5072553;27;45608;-71
2021/07/26 08:54:46;;;;;;;;;13.00;10.25;;;;;25.20;62.93;100910.03;5074571;27;45473;-71
2021/07/26 08:57:11;;;;;;;;;9.25;8.00;;;;;25.02;62.91;100910.03;5076011;27;46738;-71
2021/07/26 08:59:37;;;;;;;;;8.25;8.25;;;;;25.11;63.84;100916.34;5069941;27;45471;-71
2021/07/26 09:02:03;;;;;;;;;12.50;9.50;;;;;25.53;63.45;100911.13;5074795;27;45288;-72
2021/07/26 09:04:29;;;;;;;;;11.00;9.00;;;;;26.74;62.97;100917.19;5074346;27;45505;-71
2021/07/26 09:06:55;;;;;;;;;10.50;10.50;;;;;27.07;59.58;100907.28;5073505;27;46339;-74
2021/07/26 09:09:41;;;;;;;;;9.50;8.00;;;;;26.71;58.43;100915.66;5073418;28;45380;-72
2021/07/26 09:12:06;;;;;;;;;10.00;8.25;;;;;26.28;58.92;100922.94;5074053;28;45419;-71
2021/07/26 09:14:39;;;;;;;;;9.00;9.00;;;;;25.95;59.36;100926.53;5074102;28;45519;-71
2021/07/26 09:17:07;;;;;;;;;11.50;8.00;;;;;26.00;60.28;100927.72;5073708;27;46087;-71
2021/07/26 09:19:56;;;;;;;;;9.50;9.00;;;;;27.02;59.58;100921.25;5073982;28;45652;-71
2021/07/26 09:22:28;;;;;;;;;2.00;1.25;;;;;29.34;59.51;100919.97;5073495;28;45479;-71
2021/07/26 09:25:22;;;;;;;;;11.50;8.00;;;;;31.83;54.86;100926.75;5070371;28;45342;-71
2021/07/26 09:28:04;;;;;;;;;11.25;10.50;;;;;31.87;50.96;100922.59;5072032;27;46424;-72
2021/07/26 09:30:44;;;;;;;;;10.50;8.00;;;;;30.78;50.50;100911.25;5071830;28;45386;-71
2021/07/26 09:33:35;;;;;;;;;11.50;10.00;;;;;29.31;51.28;100909.50;5074289;27;45332;-71
2021/07/26 09:36:12;;;;;;;;;9.00;7.50;;;;;27.97;53.49;100918.75;5070048;27;45561;-71
2021/07/26 09:38:40;;;;;;;;;12.00;9.00;;;;;27.14;55.65;100916.38;5069794;27;45969;-71
2021/07/26 09:41:07;;;;;;;;;13.00;9.00;;;;;26.43;57.03;100912.41;5069666;28;45414;-71
2021/07/26 09:43:32;;;;;;;;;9.50;8.75;;;;;25.73;58.33;100903.63;5069856;27;45576;-71
2021/07/26 09:45:59;;;;;;;;;10.25;9.25;;;;;25.32;59.67;100918.69;5070615;27;45692;-71
2021/07/26 09:48:26;;;;;;;;;10.00;9.75;;;;;25.06;60.47;100929.38;5072143;27;46366;-71
2021/07/26 09:50:52;;;;;;;;;13.75;12.00;;;;;24.73;62.56;100927.25;5072077;28;45452;-71
2021/07/26 09:53:23;;;;;;;;;14.75;12.00;;;;;24.48;63.14;100925.28;5069318;28;45588;-71
2021/07/26 09:55:53;;;;;;;;;13.25;11.25;;;;;24.35;63.62;100922.97;5069372;27;45786;-71
2021/07/26 09:58:34;;;;;;;;;14.00;10.25;;;;;24.35;63.79;100940.91;5069307;28;45458;-71
2021/07/26 10:00:59;;;;;;;;;13.00;10.50;;;;;24.37;64.71;100947.00;5054190;28;45548;-71
2021/07/26 10:03:25;;;;;;;;;14.75;12.75;;;;;24.23;64.63;100942.13;5071576;27;45410;-71
2021/07/26 10:05:51;;;;;;;;;14.50;8.25;;;;;23.98;64.92;100944.47;5071432;28;45351;-72
2021/07/26 10:08:17;;;;;;;;;16.00;11.25;;;;;23.76;65.93;100943.00;5068236;27;46663;-71
2021/07/26 10:10:42;;;;;;;;;12.25;11.50;;;;;23.62;66.12;100938.91;5067617;28;45554;-72
2021/07/26 10:13:08;;;;;;;;;11.75;11.75;;;;;23.71;65.92;100949.81;5068255;28;50286;-71
2021/07/26 10:15:35;;;;;;;;;14.75;14.50;;;;;24.07;66.47;100932.03;5070852;27;45732;-71
2021/07/26 10:18:01;;;;;;;;;16.00;14.00;;;;;24.34;65.52;100941.91;5069821;27;46287;-72
2021/07/26 10:20:39;;;;;;;;;11.75;11.75;;;;;24.38;66.10;100946.00;5068739;27;45492;-71
2021/07/26 10:23:13;;;;;;;;;14.75;12.50;;;;;24.37;64.94;100944.31;5068691;28;45464;-71
2021/07/26 10:25:43;;;;;;;;;15.25;12.50;;;;;24.24;65.84;100946.50;5068402;27;45514;-72
2021/07/26 10:28:23;;;;;;;;;18.50;17.25;;;;;24.06;65.99;100952.63;5068618;27;45847;-72
2021/07/26 10:30:49;;;;;;;;;17.75;15.25;;;;;23.92;66.63;100945.91;5069379;27;45802;-72
2021/07/26 10:33:14;;;;;;;;;16.00;16.00;;;;;24.03;67.95;100952.09;5070601;28;45884;-71
2021/07/26 10:35:47;;;;;;;;;16.00;13.50;;;;;24.34;67.18;100949.97;5067803;27;45548;-72
2021/07/26 10:38:13;;;;;;;;;17.75;15.00;;;;;24.80;66.20;100942.78;5068182;27;45901;-71
2021/07/26 10:40:42;;;;;;;;;17.25;14.50;;;;;25.19;64.94;100936.09;5067949;28;45551;-71
2021/07/26 10:43:13;;;;;;;;;12.75;11.50;;;;;25.33;64.68;100942.75;5068495;27;45593;-72
2021/07/26 10:45:55;;;;;;;;;14.00;13.00;;;;;25.03;63.62;100935.91;5067927;28;45845;-71
2021/07/26 10:48:20;;;;;;;;;14.50;14.50;;;;;24.75;64.25;100948.59;5071143;28;45818;-72
2021/07/26 10:50:49;;;;;;;;;17.25;15.75;;;;;24.40;64.99;100938.66;5068186;27;47043;-72
2021/07/26 10:53:37;;;;;;;;;21.00;15.25;;;;;24.24;66.29;100950.00;5082458;27;45517;-72
2021/07/26 10:56:11;;;;;;;;;16.50;14.25;;;;;24.10;67.11;100947.81;5061640;28;45429;-71
2021/07/26 10:58:39;;;;;;;;;17.25;14.50;;;;;24.15;67.14;100951.75;5067671;27;45536;-71
2021/07/26 11:01:16;;;;;;;;;15.00;13.00;;;;;24.27;66.62;100948.84;5067918;28;45442;-71
2021/07/26 11:03:42;;;;;;;;;18.00;16.00;;;;;24.21;66.95;100944.94;5070504;27;46139;-72
2021/07/26 11:06:07;;;;;;;;;12.50;11.75;;;;;24.27;66.80;100943.47;5069775;27;45354;-72
2021/07/26 11:08:32;;;;;;;;;18.25;15.00;;;;;24.42;66.87;100939.34;5067435;28;62762;-72
2021/07/26 11:10:58;;;;;;;;;17.50;16.00;;;;;24.95;66.15;100933.16;5068097;28;45470;-71
2021/07/26 11:13:49;;;;;;;;;19.00;15.25;;;;;25.27;63.39;100929.06;5068727;27;46018;-72
2021/07/26 11:16:14;;;;;;;;;15.50;15.50;;;;;25.46;62.25;100931.56;5057054;28;45491;-71